Terminal Aerodrome Forecast
Issued by NWS

Home | Current Version | Previous Version | Text Only | Print | Product List | Glossary Off
Versions: 1 2 3 4 5 6 7 8 9 10 11 12 13 14 15 16 17 18

000
FTUS43 KMPX 221700
TAFRWF
TAF
KRWF 221740Z 2218/2318 16023G30KT P6SM SCT090 BKN150
     FM222200 17016KT P6SM SCT020 BKN060
     FM230100 17010KT 4SM -SHRA BR BKN020 OVC030
     FM230400 19008KT 6SM BR SCT020 BKN040
     FM230900 24005KT 4SM BR FEW030
     FM231300 27007KT P6SM SKC=

USA.gov is the U.S. government's official web portal to all federal, state and local government web resources and services.